This is the latest recevied weather packets stored in our database for station/object IU3OVK-13. If no packets are shown the sender has not sent any weather packets the latest 10 day(s).
| Time | Temp. | Humidity | Pressure | Rain* | Wind** | Luminosity | Snow |
|---|---|---|---|---|---|---|---|
| 1777800291 | 38.89° C | 57% | 1011.1 hPa | - | - | - | - |
| 1777799049 | 39.44° C | 59% | 1009.8 hPa | - | - | - | - |
| 1777798430 | 37.78° C | 60% | 1009.4 hPa | - | - | - | - |
| 1777797189 | 36.11° C | 62% | 1007.3 hPa | - | - | - | - |
| 1777795328 | 32.78° C | 68% | 1007.3 hPa | - | - | - | - |
| 1777794708 | 31.67° C | 70% | 1007.1 hPa | - | - | - | - |
| 1777794088 | 32.22° C | 72% | 1008.2 hPa | - | - | - | - |
| 1777793468 | 31.67° C | 74% | 1008.9 hPa | - | - | - | - |
| 1777792848 | 30.56° C | 75% | 1007 hPa | - | - | - | - |
| 1777789125 | 26.67° C | 92% | 1012.3 hPa | - | - | - | - |
| 1777788505 | 26.67° C | 96% | 1012.2 hPa | - | - | - | - |
| 1777787884 | 26.67° C | 98% | 1009.4 hPa | - | - | - | - |
| 1777755996 | 13.33° C | 99% | 1015.5 hPa | - | - | - | - |
| 1777755375 | 13.89° C | 99% | 1015.6 hPa | - | - | - | - |
| 1777754755 | 15° C | 99% | 1015.1 hPa | - | - | - | - |
| 1777754135 | 15° C | 99% | 1015.1 hPa | - | - | - | - |
| 1777752896 | 15.56° C | 99% | 1015.6 hPa | - | - | - | - |
| 1777752275 | 16.11° C | 99% | 1014.9 hPa | - | - | - | - |
| 1777751654 | 16.11° C | 99% | 1015.4 hPa | - | - | - | - |
| 1777751034 | 16.67° C | 99% | 1015.3 hPa | - | - | - | - |
| 1777750414 | 16.67° C | 99% | 1015.1 hPa | - | - | - | - |
| 1777749794 | 17.22° C | 99% | 1015 hPa | - | - | - | - |
| 1777749174 | 17.22° C | 99% | 1014.5 hPa | - | - | - | - |
| 1777748554 | 17.22° C | 99% | 1014.7 hPa | - | - | - | - |
| 1777747934 | 17.78° C | 99% | 1014.6 hPa | - | - | - | - |
* Rain since midnight (hover to see other rain measurements)
** Current wind speed in m/s (hover to see current wind gust speed)